Bangs, Texas
Current Conditions -  °F | °C
As of 2:35 AM on Sunday 23 Nov 2014 (Local Time) from KBWD Reporting Station
Moderate Fog Moderate Fog  
Wind Chill: 46°   Ceiling: 100
Heat Index: 48°   Visibility: 0.5mi
Dew Point: 48°   Wind: 5mph
Humidity: 100%   Direction: 100°E
Pressure: 29.67"   Gusts: NA
Location:  31.72°N, 99.13°W
Report Text: KBWD 230835Z AUTO 10004KT 1/2SM FG BKN001 OVC037 09/09 A2967 RMK AO2
Loading
Personal Weather Stations






























Interactive Weather Map New forecast layout! Learn more

10-Day Weather Forecast

Advertisements
Track Severe Weather on mobile